createdAt,value
2017-05-20T00:01:04.733Z,7.68
2017-05-20T00:03:33.052Z,7.40
2017-05-20T00:06:01.366Z,8.04
2017-05-20T00:08:29.740Z,6.54
2017-05-20T00:10:58.045Z,8.64
2017-05-20T00:13:26.394Z,9.80
2017-05-20T00:15:54.773Z,11.46
2017-05-20T00:18:23.166Z,10.02
2017-05-20T00:20:51.549Z,17.30
2017-05-20T00:23:19.913Z,15.88
2017-05-20T00:25:48.307Z,12.92
2017-05-20T00:28:16.664Z,13.20
2017-05-20T00:30:44.977Z,12.46
2017-05-20T00:33:13.426Z,13.66
2017-05-20T00:35:41.830Z,12.20
2017-05-20T00:38:10.141Z,13.40
2017-05-20T00:40:38.457Z,13.38
2017-05-20T00:43:06.841Z,9.22
2017-05-20T00:45:35.153Z,9.70
2017-05-20T00:48:03.458Z,9.34
2017-05-20T00:50:31.897Z,9.60
2017-05-20T00:53:00.255Z,9.16
2017-05-20T00:55:28.633Z,7.76
2017-05-20T00:57:57.018Z,11.88
2017-05-20T01:00:25.440Z,7.54
2017-05-20T01:02:53.771Z,9.28
2017-05-20T01:05:22.066Z,9.28
2017-05-20T01:07:50.440Z,8.66
2017-05-20T01:10:18.725Z,7.96
2017-05-20T01:12:47.096Z,8.34
2017-05-20T01:15:15.389Z,8.50
2017-05-20T01:17:43.764Z,8.66
2017-05-20T01:20:12.085Z,10.24
2017-05-20T01:22:40.512Z,12.04
2017-05-20T01:25:08.806Z,9.70
2017-05-20T01:27:37.130Z,10.82
2017-05-20T01:30:05.450Z,8.28
2017-05-20T01:32:33.853Z,8.20
2017-05-20T01:35:02.305Z,8.74
2017-05-20T01:37:30.684Z,10.54
2017-05-20T01:39:59.009Z,9.02
2017-05-20T01:42:27.309Z,9.20
2017-05-20T01:44:55.708Z,9.70
2017-05-20T01:47:24.094Z,12.10
2017-05-20T01:49:52.461Z,10.66
2017-05-20T01:52:20.764Z,14.10
2017-05-20T01:54:49.137Z,11.40
2017-05-20T01:57:17.504Z,13.32
2017-05-20T01:59:45.817Z,19.44
2017-05-20T02:02:14.117Z,12.44
2017-05-20T02:04:42.441Z,11.20
2017-05-20T02:07:10.741Z,12.92
2017-05-20T02:09:39.037Z,12.28
2017-05-20T02:12:07.354Z,13.30
2017-05-20T02:14:35.652Z,13.60
2017-05-20T02:17:04.122Z,12.40
2017-05-20T02:19:32.446Z,14.54
2017-05-20T02:22:00.812Z,15.10
2017-05-20T02:24:29.164Z,16.32
2017-05-20T02:26:57.553Z,14.24
2017-05-20T02:29:25.848Z,15.34
2017-05-20T02:31:54.179Z,15.12
2017-05-20T02:34:22.581Z,16.72
2017-05-20T02:36:50.906Z,15.08
2017-05-20T02:39:19.268Z,13.70
2017-05-20T02:41:47.615Z,12.62
2017-05-20T02:44:15.915Z,13.30
2017-05-20T02:46:44.330Z,12.90
2017-05-20T02:49:12.701Z,11.18
2017-05-20T02:51:41.074Z,10.06
2017-05-20T02:54:09.373Z,10.72
2017-05-20T02:56:37.732Z,10.20
2017-05-20T02:59:06.121Z,10.00
2017-05-20T03:01:34.489Z,9.66
2017-05-20T03:04:02.874Z,8.90
2017-05-20T03:06:31.249Z,6.70
2017-05-20T03:08:59.566Z,6.70
2017-05-20T03:11:27.866Z,5.22
2017-05-20T03:13:56.339Z,4.36
2017-05-20T03:16:24.743Z,4.34
2017-05-20T03:18:53.103Z,5.10
2017-05-20T03:21:21.503Z,4.30
2017-05-20T03:23:49.811Z,4.96
2017-05-20T03:26:18.122Z,4.08
2017-05-20T03:28:46.439Z,3.78
2017-05-20T03:31:14.749Z,4.18
2017-05-20T03:33:43.074Z,5.98
2017-05-20T03:36:11.395Z,8.02
2017-05-20T03:38:39.693Z,5.50
2017-05-20T03:41:08.033Z,6.16
2017-05-20T03:43:36.388Z,6.38
2017-05-20T03:46:04.713Z,6.78
2017-05-20T03:48:33.031Z,6.02
2017-05-20T03:51:01.363Z,6.48
2017-05-20T03:53:29.706Z,6.68
2017-05-20T03:55:58.169Z,5.82
2017-05-20T03:58:26.549Z,5.70
2017-05-20T04:00:54.857Z,5.72
2017-05-20T04:03:23.166Z,7.78
2017-05-20T04:05:51.477Z,5.94
2017-05-20T04:08:19.877Z,6.74
2017-05-20T04:10:48.245Z,6.16
2017-05-20T04:13:16.534Z,6.06
2017-05-20T04:15:44.899Z,5.92
2017-05-20T04:18:13.290Z,5.40
2017-05-20T04:20:41.963Z,4.58
2017-05-20T04:23:10.346Z,5.00
2017-05-20T04:25:38.733Z,4.14
2017-05-20T04:28:07.110Z,3.86
2017-05-20T04:30:35.498Z,4.02
2017-05-20T04:33:03.870Z,4.36
2017-05-20T04:35:32.245Z,4.32
2017-05-20T04:38:00.636Z,4.30
2017-05-20T04:40:29.017Z,8.54
2017-05-20T04:42:57.397Z,4.58
2017-05-20T04:45:25.761Z,3.72
2017-05-20T04:47:54.092Z,4.38
2017-05-20T04:50:22.426Z,5.94
2017-05-20T04:52:50.805Z,4.36
2017-05-20T04:55:19.177Z,4.88
2017-05-20T04:57:47.461Z,3.84
2017-05-20T05:00:15.843Z,4.96
2017-05-20T05:02:44.186Z,4.76
2017-05-20T05:05:12.652Z,5.48
2017-05-20T05:07:40.969Z,5.82
2017-05-20T05:10:09.353Z,4.46
2017-05-20T05:12:37.649Z,3.46
2017-05-20T05:15:05.975Z,3.44
2017-05-20T05:17:34.326Z,4.00
2017-05-20T05:20:02.629Z,4.30
2017-05-20T05:22:30.933Z,4.72
2017-05-20T05:24:59.243Z,4.58
2017-05-20T05:27:27.537Z,4.74
2017-05-20T05:29:55.847Z,4.86
2017-05-20T05:32:24.224Z,4.48
2017-05-20T05:34:52.535Z,4.22
2017-05-20T05:37:20.846Z,3.68
2017-05-20T05:39:49.287Z,4.42
2017-05-20T05:42:18.996Z,3.90
2017-05-20T05:44:47.308Z,5.70
2017-05-20T05:47:15.723Z,4.22
2017-05-20T05:49:44.083Z,3.90
2017-05-20T05:52:12.473Z,3.54
2017-05-20T05:54:40.765Z,3.70
2017-05-20T05:57:09.085Z,2.94
2017-05-20T05:59:37.374Z,3.56
2017-05-20T06:02:05.768Z,3.66
2017-05-20T06:04:34.167Z,3.30
2017-05-20T06:07:02.544Z,3.28
2017-05-20T06:09:30.907Z,3.48
2017-05-20T06:11:59.344Z,3.92
2017-05-20T06:14:27.654Z,3.76
2017-05-20T06:16:55.978Z,4.04
2017-05-20T06:19:24.336Z,3.10
2017-05-20T06:21:52.726Z,4.00
2017-05-20T06:24:21.044Z,3.14
2017-05-20T06:26:49.351Z,3.92
2017-05-20T06:29:17.755Z,4.56
2017-05-20T06:31:46.130Z,4.32
2017-05-20T06:34:14.449Z,4.54
2017-05-20T06:36:42.773Z,4.00
2017-05-20T06:39:11.073Z,4.60
2017-05-20T06:41:39.362Z,3.88
2017-05-20T06:44:07.715Z,4.16
2017-05-20T06:46:36.105Z,4.64
2017-05-20T06:49:04.441Z,5.94
2017-05-20T06:51:32.735Z,4.26
2017-05-20T06:54:01.038Z,5.60
2017-05-20T06:56:29.349Z,4.24
2017-05-20T06:58:57.700Z,3.94
2017-05-20T07:01:26.007Z,3.74
2017-05-20T07:03:54.310Z,3.88
2017-05-20T07:06:22.627Z,4.06
2017-05-20T07:08:50.976Z,4.76
2017-05-20T07:11:19.379Z,4.58
2017-05-20T07:13:47.764Z,4.96
2017-05-20T07:16:16.084Z,5.22
2017-05-20T07:18:44.533Z,4.40
2017-05-20T07:21:12.850Z,4.96
2017-05-20T07:23:41.162Z,7.96
2017-05-20T07:26:09.548Z,5.82
2017-05-20T07:28:37.837Z,5.76
2017-05-20T07:31:06.303Z,6.70
2017-05-20T07:33:34.597Z,6.74
2017-05-20T07:36:02.893Z,7.46
2017-05-20T07:38:31.226Z,8.18
2017-05-20T07:40:59.633Z,8.10
2017-05-20T07:43:27.990Z,7.80
2017-05-20T07:45:56.278Z,8.12
2017-05-20T07:48:24.646Z,6.60
2017-05-20T07:50:52.933Z,8.60
2017-05-20T07:53:21.316Z,8.72
2017-05-20T07:55:49.773Z,10.06
2017-05-20T07:58:18.102Z,8.68
2017-05-20T08:00:46.437Z,8.20
2017-05-20T08:03:13.985Z,10.44
2017-05-20T08:05:41.506Z,9.34
2017-05-20T08:08:09.815Z,10.28
2017-05-20T08:10:38.223Z,10.82
2017-05-20T08:13:06.619Z,10.20
2017-05-20T08:15:34.922Z,10.14
2017-05-20T08:18:03.253Z,10.66
2017-05-20T08:20:31.635Z,8.58
2017-05-20T08:23:00.015Z,9.30
2017-05-20T08:25:27.575Z,9.86
2017-05-20T08:27:55.102Z,10.16
2017-05-20T08:30:23.434Z,9.68
2017-05-20T08:32:51.803Z,10.96
2017-05-20T08:35:20.125Z,9.84
2017-05-20T08:37:48.457Z,10.34
2017-05-20T08:40:16.834Z,10.94
2017-05-20T08:42:45.205Z,9.80
2017-05-20T08:45:13.597Z,10.22
2017-05-20T08:47:41.981Z,9.84
2017-05-20T08:50:10.347Z,10.66
2017-05-20T08:52:38.657Z,11.00
2017-05-20T08:55:06.943Z,9.94
2017-05-20T08:57:35.250Z,8.98
2017-05-20T09:00:03.570Z,10.96
2017-05-20T09:02:31.885Z,9.26
2017-05-20T09:05:00.209Z,10.56
2017-05-20T09:07:28.531Z,10.30
2017-05-20T09:09:56.863Z,12.26
2017-05-20T09:12:25.241Z,10.56
2017-05-20T09:14:53.625Z,10.72
2017-05-20T09:17:21.942Z,11.20
2017-05-20T09:19:50.257Z,11.60
2017-05-20T09:22:18.662Z,11.74
2017-05-20T09:24:47.044Z,12.58
2017-05-20T09:27:15.434Z,12.14
2017-05-20T09:29:43.795Z,11.92
2017-05-20T09:32:12.126Z,11.22
2017-05-20T09:34:40.446Z,12.16
2017-05-20T09:37:08.755Z,10.50
2017-05-20T09:39:37.093Z,10.42
2017-05-20T09:42:05.493Z,9.86
2017-05-20T09:44:33.806Z,9.12
2017-05-20T09:47:02.099Z,9.30
2017-05-20T09:49:30.485Z,10.22
2017-05-20T09:51:58.783Z,9.92
2017-05-20T09:54:27.183Z,9.36
2017-05-20T09:56:55.477Z,9.16
2017-05-20T09:59:23.812Z,10.70
2017-05-20T10:01:52.098Z,8.72
2017-05-20T10:04:20.437Z,8.04
2017-05-20T10:06:48.729Z,7.84
2017-05-20T10:09:17.031Z,9.48
2017-05-20T10:11:45.343Z,9.62
2017-05-20T10:14:13.674Z,8.26
2017-05-20T10:16:41.991Z,8.40
2017-05-20T10:19:10.289Z,9.44
2017-05-20T10:21:38.591Z,8.08
2017-05-20T10:24:06.997Z,7.80
2017-05-20T10:26:35.376Z,8.26
2017-05-20T10:29:03.673Z,10.12
2017-05-20T10:31:32.023Z,8.14
2017-05-20T10:34:00.314Z,9.24
2017-05-20T10:36:28.625Z,8.98
2017-05-20T10:38:56.950Z,8.60
2017-05-20T10:41:25.266Z,10.20
2017-05-20T10:43:53.557Z,8.72
2017-05-20T10:46:21.959Z,7.32
2017-05-20T10:48:50.372Z,7.48
2017-05-20T10:51:18.829Z,7.42
2017-05-20T10:53:47.146Z,10.12
2017-05-20T10:56:15.461Z,8.88
2017-05-20T10:58:43.849Z,7.50
2017-05-20T11:01:12.133Z,7.30
2017-05-20T11:03:40.511Z,7.28
2017-05-20T11:06:08.810Z,7.14
2017-05-20T11:08:37.244Z,7.64
2017-05-20T11:11:05.537Z,6.74
2017-05-20T11:13:34.003Z,6.84
2017-05-20T11:16:02.401Z,7.48
2017-05-20T11:18:30.763Z,7.50
2017-05-20T11:20:59.152Z,6.58
2017-05-20T11:23:27.462Z,7.02
2017-05-20T11:25:55.762Z,7.42
2017-05-20T11:28:24.088Z,6.98
2017-05-20T11:30:52.469Z,7.44
2017-05-20T11:33:20.761Z,7.40
2017-05-20T11:35:49.071Z,7.36
2017-05-20T11:38:17.367Z,7.54
2017-05-20T11:40:45.666Z,7.58
2017-05-20T11:43:13.977Z,7.40
2017-05-20T11:45:42.296Z,7.84
2017-05-20T11:48:10.583Z,7.56
2017-05-20T11:50:38.895Z,8.42
2017-05-20T11:53:07.198Z,7.56
2017-05-20T11:55:35.548Z,8.08
2017-05-20T11:58:03.863Z,7.42
2017-05-20T12:00:32.189Z,8.52
2017-05-20T12:03:00.579Z,8.38
2017-05-20T12:05:28.960Z,8.72
2017-05-20T12:07:57.334Z,9.10
2017-05-20T12:10:25.704Z,9.96
2017-05-20T12:12:54.089Z,8.78
2017-05-20T12:15:22.382Z,9.88
2017-05-20T12:17:50.690Z,8.46
2017-05-20T12:20:19.021Z,8.08
2017-05-20T12:22:46.557Z,8.42
2017-05-20T12:25:14.085Z,9.36
2017-05-20T12:27:41.609Z,11.58
2017-05-20T12:30:09.985Z,12.82
2017-05-20T12:32:38.354Z,10.76
2017-05-20T12:35:05.898Z,10.74
2017-05-20T12:37:35.162Z,9.42
2017-05-20T12:40:03.727Z,9.76
2017-05-20T12:42:32.132Z,9.80
2017-05-20T12:45:00.915Z,9.92
2017-05-20T12:47:29.340Z,10.70
2017-05-20T12:49:57.667Z,11.80
2017-05-20T12:52:25.957Z,9.60
2017-05-20T12:54:54.258Z,9.76
2017-05-20T12:57:22.671Z,9.90
2017-05-20T12:59:51.042Z,9.78
2017-05-20T13:02:19.434Z,9.82
2017-05-20T13:04:47.804Z,11.34
2017-05-20T13:07:16.176Z,13.20
2017-05-20T13:09:44.554Z,11.76
2017-05-20T13:12:12.992Z,11.94
2017-05-20T13:14:41.335Z,11.80
2017-05-20T13:17:09.856Z,11.70
2017-05-20T13:19:38.273Z,12.46
2017-05-20T13:22:06.597Z,11.08
2017-05-20T13:24:34.926Z,10.90
2017-05-20T13:27:03.300Z,12.44
2017-05-20T13:29:31.662Z,11.80
2017-05-20T13:32:00.084Z,11.16
2017-05-20T13:34:28.459Z,11.40
2017-05-20T13:36:56.768Z,9.70
2017-05-20T13:39:25.110Z,10.04
2017-05-20T13:41:53.425Z,10.02
2017-05-20T13:44:21.724Z,11.50
2017-05-20T13:46:50.050Z,11.04
2017-05-20T13:49:18.375Z,11.86
2017-05-20T13:51:46.697Z,11.44
2017-05-20T13:54:15.125Z,11.06
2017-05-20T13:56:43.449Z,11.10
2017-05-20T13:59:11.749Z,11.74
2017-05-20T14:01:40.060Z,11.70
2017-05-20T14:04:08.398Z,10.56
2017-05-20T14:06:36.781Z,9.90
2017-05-20T14:09:05.085Z,10.50
2017-05-20T14:11:33.369Z,10.08
2017-05-20T14:14:01.681Z,10.14
2017-05-20T14:16:29.977Z,11.82
2017-05-20T14:18:58.339Z,12.20
2017-05-20T14:21:26.704Z,13.28
2017-05-20T14:23:54.998Z,12.56
2017-05-20T14:26:23.362Z,11.00
2017-05-20T14:28:51.741Z,12.86
2017-05-20T14:31:20.065Z,11.14
2017-05-20T14:33:48.370Z,12.30
2017-05-20T14:36:16.781Z,13.30
2017-05-20T14:38:45.097Z,11.84
2017-05-20T14:41:13.438Z,11.74
2017-05-20T14:43:41.736Z,12.42
2017-05-20T14:46:10.086Z,12.26
2017-05-20T14:48:38.389Z,11.46
2017-05-20T14:51:06.749Z,11.08
2017-05-20T14:53:35.129Z,10.20
2017-05-20T14:56:03.506Z,10.44
2017-05-20T14:58:31.812Z,10.52
2017-05-20T15:01:00.173Z,9.20
2017-05-20T15:03:28.537Z,10.32
2017-05-20T15:05:56.917Z,9.86
2017-05-20T15:08:25.299Z,10.28
2017-05-20T15:10:53.693Z,11.04
2017-05-20T15:13:22.066Z,9.84
2017-05-20T15:15:50.439Z,9.60
2017-05-20T15:18:18.745Z,9.18
2017-05-20T15:20:47.090Z,10.28
2017-05-20T15:23:15.485Z,11.16
2017-05-20T15:25:43.949Z,10.68
2017-05-20T15:28:12.262Z,11.20
2017-05-20T15:30:40.558Z,10.84
2017-05-20T15:33:08.853Z,9.84
2017-05-20T15:35:37.273Z,9.52
2017-05-20T15:38:05.654Z,9.16
2017-05-20T15:40:34.029Z,9.34
2017-05-20T15:43:02.409Z,9.70
2017-05-20T15:45:30.714Z,8.50
2017-05-20T15:47:59.010Z,9.36
2017-05-20T15:50:27.336Z,9.66
2017-05-20T15:52:55.715Z,9.26
2017-05-20T15:55:24.023Z,9.50
2017-05-20T15:57:52.385Z,9.78
2017-05-20T16:00:20.768Z,8.38
2017-05-20T16:02:49.134Z,9.44
2017-05-20T16:05:17.437Z,9.50
2017-05-20T16:07:45.789Z,8.90
2017-05-20T16:10:14.093Z,9.26
2017-05-20T16:12:42.454Z,8.94
2017-05-20T16:15:10.782Z,8.16
2017-05-20T16:17:39.089Z,8.96
2017-05-20T16:20:07.480Z,7.34
2017-05-20T16:22:35.790Z,6.96
2017-05-20T16:25:04.123Z,8.12
2017-05-20T16:27:32.519Z,8.36
2017-05-20T16:30:00.822Z,8.14
2017-05-20T16:32:29.125Z,8.30
2017-05-20T16:34:57.447Z,8.62
2017-05-20T16:37:25.759Z,7.74
2017-05-20T16:39:54.062Z,8.46
2017-05-20T16:42:22.478Z,9.18
2017-05-20T16:44:50.786Z,10.04
2017-05-20T16:47:19.115Z,9.16
2017-05-20T16:49:47.411Z,9.40
2017-05-20T16:52:15.728Z,9.12
2017-05-20T16:54:44.066Z,8.14
2017-05-20T16:57:12.367Z,7.32
2017-05-20T16:59:41.094Z,7.24
2017-05-20T17:02:09.399Z,7.30
2017-05-20T17:04:37.727Z,6.96
2017-05-20T17:07:06.028Z,7.12
2017-05-20T17:09:34.354Z,7.72
2017-05-20T17:12:02.687Z,7.10
2017-05-20T17:14:30.995Z,6.82
2017-05-20T17:16:59.378Z,10.30
2017-05-20T17:19:27.698Z,7.10
2017-05-20T17:21:56.011Z,7.52
2017-05-20T17:24:24.406Z,6.92
2017-05-20T17:26:53.243Z,8.18
2017-05-20T17:29:21.576Z,8.16
2017-05-20T17:31:49.874Z,8.54
2017-05-20T17:34:18.250Z,7.96
2017-05-20T17:36:46.594Z,8.68
2017-05-20T17:39:14.895Z,8.58
2017-05-20T17:41:43.209Z,8.92
2017-05-20T17:44:11.554Z,8.70
2017-05-20T17:46:39.870Z,7.82
2017-05-20T17:49:08.179Z,8.10
2017-05-20T17:51:36.581Z,8.32
2017-05-20T17:54:04.889Z,7.88
2017-05-20T17:56:33.250Z,8.48
2017-05-20T17:59:01.556Z,10.38
2017-05-20T18:01:29.994Z,9.48
2017-05-20T18:03:58.286Z,9.72
2017-05-20T18:06:26.597Z,10.70
2017-05-20T18:08:54.939Z,8.50
2017-05-20T18:11:23.332Z,10.24
2017-05-20T18:13:51.641Z,9.24
2017-05-20T18:16:19.966Z,9.00
2017-05-20T18:18:48.270Z,9.36
2017-05-20T18:21:16.552Z,8.14
2017-05-20T18:23:44.957Z,8.40
2017-05-20T18:26:13.265Z,9.34
2017-05-20T18:28:41.626Z,8.38
2017-05-20T18:31:09.921Z,10.28
2017-05-20T18:33:38.334Z,9.16
2017-05-20T18:36:06.626Z,9.54
2017-05-20T18:38:35.038Z,9.24
2017-05-20T18:41:03.372Z,9.54
2017-05-20T18:43:31.692Z,23.08
2017-05-20T18:45:59.996Z,10.54
2017-05-20T18:48:28.359Z,9.80
2017-05-20T18:50:56.744Z,10.74
2017-05-20T18:53:25.117Z,8.98
2017-05-20T18:55:53.443Z,9.24
2017-05-20T18:58:21.777Z,8.36
2017-05-20T19:00:50.085Z,9.42
2017-05-20T19:03:18.392Z,10.04
2017-05-20T19:05:46.706Z,9.70
2017-05-20T19:08:15.013Z,16.54
2017-05-20T19:10:43.326Z,10.54
2017-05-20T19:13:11.733Z,8.88
2017-05-20T19:15:40.106Z,9.18
2017-05-20T19:18:08.511Z,9.16
2017-05-20T19:20:36.825Z,11.20
2017-05-20T19:23:05.117Z,9.54
2017-05-20T19:25:33.421Z,9.54
2017-05-20T19:28:01.723Z,8.96
2017-05-20T19:30:30.022Z,12.06
2017-05-20T19:32:58.420Z,10.38
2017-05-20T19:35:26.743Z,9.52
2017-05-20T19:37:55.121Z,11.18
2017-05-20T19:40:23.485Z,9.98
2017-05-20T19:42:51.794Z,11.82
2017-05-20T19:45:20.093Z,11.54
2017-05-20T19:47:48.439Z,20.64
2017-05-20T19:50:16.736Z,14.94
2017-05-20T19:52:45.064Z,14.04
2017-05-20T19:55:13.367Z,19.52
2017-05-20T19:57:41.733Z,16.72
2017-05-20T20:00:10.034Z,14.82
2017-05-20T20:02:37.594Z,13.60
2017-05-20T20:05:05.958Z,11.58
2017-05-20T20:07:35.178Z,13.62
2017-05-20T20:10:03.538Z,15.80
2017-05-20T20:12:31.886Z,14.70
2017-05-20T20:15:00.210Z,15.84
2017-05-20T20:17:28.517Z,16.68
2017-05-20T20:19:56.834Z,17.22
2017-05-20T20:22:25.214Z,15.28
2017-05-20T20:24:53.611Z,14.08
2017-05-20T20:27:21.911Z,14.56
2017-05-20T20:29:50.266Z,13.60
2017-05-20T20:32:18.647Z,14.12
2017-05-20T20:34:47.187Z,13.96
2017-05-20T20:37:15.494Z,13.68
2017-05-20T20:39:43.823Z,13.78
2017-05-20T20:42:12.143Z,16.06
2017-05-20T20:44:40.461Z,15.88
2017-05-20T20:47:08.766Z,15.44
2017-05-20T20:49:37.157Z,15.24
2017-05-20T20:52:05.565Z,14.62
2017-05-20T20:54:33.887Z,15.50
2017-05-20T20:57:02.225Z,16.80
2017-05-20T20:59:30.544Z,14.68
2017-05-20T21:01:58.877Z,14.92
2017-05-20T21:04:27.175Z,18.22
2017-05-20T21:06:55.501Z,16.64
2017-05-20T21:09:23.817Z,14.54
2017-05-20T21:11:52.143Z,19.10
2017-05-20T21:14:20.465Z,23.00
2017-05-20T21:16:48.781Z,22.42
2017-05-20T21:19:17.074Z,24.16
2017-05-20T21:21:45.423Z,21.86
2017-05-20T21:24:13.724Z,17.30
2017-05-20T21:26:42.047Z,23.70
2017-05-20T21:29:10.351Z,31.20
2017-05-20T21:31:38.696Z,26.24
2017-05-20T21:34:07.108Z,21.42
2017-05-20T21:36:35.423Z,20.18
2017-05-20T21:39:03.972Z,17.48
2017-05-20T21:41:32.449Z,18.46
2017-05-20T21:44:00.825Z,20.36
2017-05-20T21:46:29.134Z,19.22
2017-05-20T21:48:57.469Z,19.56
2017-05-20T21:51:25.808Z,19.20
2017-05-20T21:53:54.184Z,19.50
2017-05-20T21:56:22.583Z,20.48
2017-05-20T21:58:50.906Z,24.70
2017-05-20T22:01:19.211Z,23.48
2017-05-20T22:03:47.525Z,24.16
2017-05-20T22:06:15.831Z,20.68
2017-05-20T22:08:44.151Z,22.40
2017-05-20T22:11:12.454Z,24.50
2017-05-20T22:13:40.818Z,23.12
2017-05-20T22:16:09.207Z,20.84
2017-05-20T22:18:37.512Z,23.26
2017-05-20T22:21:05.825Z,22.98
2017-05-20T22:23:34.138Z,24.10
2017-05-20T22:26:02.497Z,24.60
2017-05-20T22:28:30.803Z,24.16
2017-05-20T22:30:59.153Z,24.22
2017-05-20T22:33:27.547Z,23.18
2017-05-20T22:35:55.862Z,24.20
2017-05-20T22:38:24.168Z,22.84
2017-05-20T22:40:52.493Z,22.74
2017-05-20T22:43:20.786Z,23.76
2017-05-20T22:45:49.147Z,23.10
2017-05-20T22:48:17.449Z,24.12
2017-05-20T22:50:45.760Z,22.10
2017-05-20T22:53:14.158Z,22.98
2017-05-20T22:55:42.538Z,21.40
2017-05-20T22:58:10.922Z,21.78
2017-05-20T23:00:39.237Z,23.88
2017-05-20T23:03:07.564Z,23.70
2017-05-20T23:05:35.953Z,21.36
2017-05-20T23:08:04.285Z,25.24
2017-05-20T23:10:32.583Z,24.10
2017-05-20T23:13:00.898Z,24.26
2017-05-20T23:15:29.270Z,22.76
2017-05-20T23:17:57.655Z,22.50
2017-05-20T23:20:26.052Z,21.48
2017-05-20T23:22:54.401Z,22.74
2017-05-20T23:25:22.782Z,21.36
2017-05-20T23:27:51.193Z,21.24
2017-05-20T23:30:19.553Z,22.78
2017-05-20T23:32:47.913Z,22.16
2017-05-20T23:35:16.221Z,21.28
2017-05-20T23:37:44.587Z,22.76
2017-05-20T23:40:12.964Z,22.82
2017-05-20T23:42:41.338Z,23.00
2017-05-20T23:45:09.645Z,22.68
2017-05-20T23:47:37.937Z,20.84
2017-05-20T23:50:06.262Z,20.70
2017-05-20T23:52:34.561Z,20.30
2017-05-20T23:55:02.925Z,21.14
2017-05-20T23:57:31.229Z,20.70
2017-05-20T23:59:59.581Z,20.12
